createdAt,value
2018-06-28T00:01:47.802Z,13.40
2018-06-28T00:04:58.574Z,13.30
2018-06-28T00:08:09.305Z,13.30
2018-06-28T00:11:20.132Z,13.30
2018-06-28T00:14:30.266Z,13.20
2018-06-28T00:17:41.085Z,13.20
2018-06-28T00:20:51.569Z,13.20
2018-06-28T00:24:01.614Z,13.00
2018-06-28T00:27:11.501Z,13.00
2018-06-28T00:30:21.560Z,13.00
2018-06-28T00:33:32.196Z,13.00
2018-06-28T00:36:42.450Z,12.90
2018-06-28T00:39:53.564Z,12.90
2018-06-28T00:43:04.378Z,12.90
2018-06-28T00:46:15.117Z,13.00
2018-06-28T00:49:25.917Z,13.10
2018-06-28T00:52:36.446Z,12.90
2018-06-28T00:55:47.217Z,13.00
2018-06-28T00:58:57.213Z,12.80
2018-06-28T01:02:07.225Z,12.80
2018-06-28T01:05:24.469Z,12.80
2018-06-28T01:08:35.092Z,12.80
2018-06-28T01:11:46.163Z,12.80
2018-06-28T01:14:56.997Z,12.70
2018-06-28T01:18:07.566Z,12.70
2018-06-28T01:21:17.637Z,12.60
2018-06-28T01:24:27.678Z,12.50
2018-06-28T01:27:38.142Z,12.60
2018-06-28T01:30:48.599Z,12.60
2018-06-28T01:33:58.996Z,12.60
2018-06-28T01:37:09.440Z,12.50
2018-06-28T01:40:20.709Z,12.40
2018-06-28T01:43:42.509Z,12.50
2018-06-28T01:46:53.196Z,12.40
2018-06-28T01:50:03.897Z,12.40
2018-06-28T01:53:14.552Z,12.30
2018-06-28T01:56:24.403Z,12.20
2018-06-28T01:59:34.573Z,12.20
2018-06-28T02:02:45.253Z,12.20
2018-06-28T02:05:56.623Z,12.00
2018-06-28T02:09:08.896Z,11.80
2018-06-28T02:12:18.829Z,11.80
2018-06-28T02:18:39.088Z,11.70
2018-06-28T02:21:49.493Z,11.60
2018-06-28T02:25:00.472Z,11.70
2018-06-28T02:28:11.045Z,11.80
2018-06-28T02:31:21.287Z,11.80
2018-06-28T02:34:32.027Z,11.80
2018-06-28T02:37:41.970Z,11.60
2018-06-28T02:40:52.050Z,11.70
2018-06-28T02:44:02.180Z,11.70
2018-06-28T02:47:12.769Z,11.70
2018-06-28T02:50:23.261Z,11.70
2018-06-28T02:53:33.610Z,11.60
2018-06-28T02:56:44.342Z,11.60
2018-06-28T03:03:04.509Z,11.50
2018-06-28T03:06:15.374Z,11.40
2018-06-28T03:09:25.510Z,11.30
2018-06-28T03:12:36.374Z,11.30
2018-06-28T03:15:47.001Z,11.00
2018-06-28T03:18:57.245Z,11.20
2018-06-28T03:22:08.383Z,11.20
2018-06-28T03:25:18.644Z,11.20
2018-06-28T03:28:29.624Z,11.20
2018-06-28T03:31:39.501Z,11.10
2018-06-28T03:34:49.551Z,11.20
2018-06-28T03:38:00.236Z,10.90
2018-06-28T03:41:11.530Z,10.80
2018-06-28T03:44:21.774Z,10.90
2018-06-28T03:47:32.057Z,11.00
2018-06-28T03:50:42.499Z,11.10
2018-06-28T03:53:52.446Z,11.10
2018-06-28T03:57:02.889Z,11.10
2018-06-28T04:00:12.826Z,11.30
2018-06-28T04:03:22.991Z,11.30
2018-06-28T04:06:33.258Z,11.40
2018-06-28T04:09:43.839Z,11.40
2018-06-28T04:12:54.769Z,11.40
2018-06-28T04:16:05.957Z,11.40
2018-06-28T04:19:16.463Z,11.30
2018-06-28T04:22:30.859Z,11.20
2018-06-28T04:25:41.494Z,11.30
2018-06-28T04:28:52.333Z,11.30
2018-06-28T04:32:03.164Z,11.30
2018-06-28T04:35:13.493Z,11.20
2018-06-28T04:38:24.329Z,11.30
2018-06-28T04:41:35.273Z,11.30
2018-06-28T04:44:45.468Z,11.50
2018-06-28T04:47:56.233Z,11.60
2018-06-28T04:51:07.189Z,11.70
2018-06-28T04:54:18.096Z,11.70
2018-06-28T04:57:28.889Z,11.80
2018-06-28T05:00:39.972Z,11.80
2018-06-28T05:07:00.829Z,12.00
2018-06-28T05:10:11.373Z,12.20
2018-06-28T05:13:21.904Z,12.20
2018-06-28T05:16:32.437Z,12.40
2018-06-28T05:19:42.834Z,12.40
2018-06-28T05:22:52.862Z,12.50
2018-06-28T05:26:03.974Z,12.60
2018-06-28T05:29:14.107Z,12.70
2018-06-28T05:32:24.822Z,12.80
2018-06-28T05:35:34.875Z,12.90
2018-06-28T05:38:45.390Z,12.90
2018-06-28T05:41:57.330Z,13.00
2018-06-28T05:45:07.803Z,13.10
2018-06-28T05:48:17.956Z,13.20
2018-06-28T05:51:27.918Z,13.30
2018-06-28T05:54:38.021Z,13.40
2018-06-28T05:57:48.655Z,13.50
2018-06-28T06:00:58.770Z,13.70
2018-06-28T06:04:09.575Z,13.70
2018-06-28T06:07:20.368Z,13.90
2018-06-28T06:10:31.050Z,14.10
2018-06-28T06:13:41.785Z,14.30
2018-06-28T06:16:52.444Z,14.40
2018-06-28T06:20:03.389Z,14.60
2018-06-28T06:23:13.730Z,14.70
2018-06-28T06:26:24.477Z,14.90
2018-06-28T06:29:35.336Z,15.00
2018-06-28T06:32:46.073Z,15.20
2018-06-28T06:35:56.166Z,15.30
2018-06-28T06:39:09.232Z,15.20
2018-06-28T06:42:20.262Z,15.30
2018-06-28T06:45:30.990Z,15.40
2018-06-28T06:48:41.696Z,15.40
2018-06-28T06:51:52.301Z,15.70
2018-06-28T06:55:02.655Z,15.70
2018-06-28T06:58:12.558Z,15.80
2018-06-28T07:04:32.004Z,16.30
2018-06-28T07:07:43.062Z,16.40
2018-06-28T07:10:53.105Z,16.60
2018-06-28T07:14:03.065Z,16.90
2018-06-28T07:17:13.418Z,17.10
2018-06-28T07:20:23.507Z,17.10
2018-06-28T07:23:33.961Z,17.10
2018-06-28T07:26:44.845Z,17.10
2018-06-28T07:29:55.335Z,17.30
2018-06-28T07:33:06.159Z,17.70
2018-06-28T07:36:17.545Z,17.80
2018-06-28T07:39:27.562Z,17.90
2018-06-28T07:42:38.022Z,18.00
2018-06-28T07:45:48.738Z,18.30
2018-06-28T07:48:58.878Z,18.50
2018-06-28T07:52:09.522Z,18.80
2018-06-28T07:55:19.651Z,18.90
2018-06-28T07:58:30.279Z,19.00
2018-06-28T08:01:41.194Z,19.10
2018-06-28T08:04:51.777Z,19.30
2018-06-28T08:08:02.537Z,19.40
2018-06-28T08:11:13.243Z,19.50
2018-06-28T08:14:23.129Z,19.60
2018-06-28T08:17:34.110Z,19.70
2018-06-28T08:20:44.927Z,19.80
2018-06-28T08:23:55.792Z,20.00
2018-06-28T08:27:06.933Z,20.00
2018-06-28T08:30:17.389Z,20.10
2018-06-28T08:33:27.309Z,19.90
2018-06-28T08:36:37.998Z,20.10
2018-06-28T08:39:48.271Z,20.20
2018-06-28T08:42:59.132Z,20.30
2018-06-28T08:46:09.862Z,20.10
2018-06-28T08:49:20.634Z,20.40
2018-06-28T08:52:31.441Z,20.60
2018-06-28T08:55:44.599Z,20.60
2018-06-28T08:58:55.082Z,20.50
2018-06-28T09:02:06.112Z,20.50
2018-06-28T09:05:16.665Z,20.40
2018-06-28T09:08:26.501Z,20.60
2018-06-28T09:11:38.759Z,20.70
2018-06-28T09:14:49.330Z,20.70
2018-06-28T09:17:59.281Z,20.60
2018-06-28T09:21:10.310Z,20.90
2018-06-28T09:24:20.814Z,21.20
2018-06-28T09:27:30.661Z,21.50
2018-06-28T09:30:41.570Z,21.80
2018-06-28T09:33:52.281Z,21.80
2018-06-28T09:37:02.947Z,21.80
2018-06-28T09:40:13.654Z,22.10
2018-06-28T09:43:23.677Z,22.20
2018-06-28T09:46:34.712Z,22.30
2018-06-28T09:49:45.208Z,22.30
2018-06-28T09:52:54.989Z,22.20
2018-06-28T09:56:05.295Z,22.20
2018-06-28T09:59:15.339Z,22.10
2018-06-28T10:02:25.155Z,22.00
2018-06-28T10:05:35.842Z,21.80
2018-06-28T10:08:45.889Z,22.00
2018-06-28T10:11:56.462Z,22.00
2018-06-28T10:15:07.251Z,21.90
2018-06-28T10:18:17.763Z,22.10
2018-06-28T10:21:27.717Z,22.10
2018-06-28T10:24:38.599Z,22.00
2018-06-28T10:27:49.580Z,22.10
2018-06-28T10:31:00.389Z,22.10
2018-06-28T10:34:11.250Z,22.00
2018-06-28T10:37:22.470Z,22.00
2018-06-28T10:40:32.935Z,22.00
2018-06-28T10:43:44.157Z,21.90
2018-06-28T10:46:54.240Z,22.10
2018-06-28T10:50:05.637Z,22.40
2018-06-28T10:53:15.758Z,22.50
2018-06-28T10:56:26.445Z,22.60
2018-06-28T10:59:37.515Z,22.60
2018-06-28T11:02:51.647Z,22.70
2018-06-28T11:06:02.171Z,22.70
2018-06-28T11:09:12.301Z,22.70
2018-06-28T11:12:22.916Z,22.60
2018-06-28T11:15:33.638Z,22.70
2018-06-28T11:18:44.441Z,22.70
2018-06-28T11:21:55.093Z,22.90
2018-06-28T11:25:05.755Z,22.90
2018-06-28T11:28:16.402Z,23.00
2018-06-28T11:31:27.079Z,22.90
2018-06-28T11:34:37.122Z,22.90
2018-06-28T11:37:47.737Z,22.80
2018-06-28T11:40:58.205Z,22.90
2018-06-28T11:44:10.086Z,22.70
2018-06-28T11:47:20.653Z,22.60
2018-06-28T11:50:30.979Z,22.50
2018-06-28T11:53:41.186Z,22.40
2018-06-28T11:56:51.878Z,22.50
2018-06-28T12:00:02.731Z,22.50
2018-06-28T12:03:13.452Z,22.30
2018-06-28T12:06:24.184Z,22.30
2018-06-28T12:09:34.684Z,21.90
2018-06-28T12:12:45.920Z,21.80
2018-06-28T12:15:56.400Z,21.70
2018-06-28T12:19:07.152Z,21.60
2018-06-28T12:22:17.631Z,21.60
2018-06-28T12:25:27.841Z,21.50
2018-06-28T12:28:38.165Z,21.40
2018-06-28T12:31:49.112Z,21.30
2018-06-28T12:34:59.237Z,21.30
2018-06-28T12:38:09.857Z,21.30
2018-06-28T12:41:20.944Z,21.20
2018-06-28T12:44:31.800Z,21.20
2018-06-28T12:47:56.637Z,21.00
2018-06-28T12:51:07.123Z,20.80
2018-06-28T12:54:17.817Z,20.70
2018-06-28T12:57:28.344Z,20.70
2018-06-28T13:00:39.234Z,20.60
2018-06-28T13:03:50.236Z,20.50
2018-06-28T13:07:00.962Z,20.40
2018-06-28T13:10:13.814Z,20.40
2018-06-28T13:13:24.110Z,20.40
2018-06-28T13:16:34.650Z,20.30
2018-06-28T13:19:44.598Z,20.20
2018-06-28T13:22:55.211Z,20.10
2018-06-28T13:26:05.370Z,19.90
2018-06-28T13:29:16.288Z,19.80
2018-06-28T13:32:26.835Z,19.70
2018-06-28T13:35:37.382Z,19.80
2018-06-28T13:38:48.132Z,19.70
2018-06-28T13:41:58.904Z,19.50
2018-06-28T13:45:10.630Z,19.60
2018-06-28T13:48:21.561Z,19.60
2018-06-28T13:51:32.220Z,19.60
2018-06-28T13:54:42.152Z,19.60
2018-06-28T13:57:52.323Z,19.70
2018-06-28T14:01:02.333Z,19.70
2018-06-28T14:04:12.616Z,19.60
2018-06-28T14:07:23.442Z,19.60
2018-06-28T14:10:34.334Z,19.60
2018-06-28T14:13:44.843Z,19.60
2018-06-28T14:16:55.791Z,19.50
2018-06-28T14:20:07.735Z,19.60
2018-06-28T14:23:18.004Z,19.60
2018-06-28T14:26:28.129Z,19.70
2018-06-28T14:29:38.206Z,19.60
2018-06-28T14:32:48.121Z,19.70
2018-06-28T14:35:58.695Z,19.60
2018-06-28T14:39:09.895Z,19.60
2018-06-28T14:42:20.109Z,19.70
2018-06-28T14:45:30.851Z,19.70
2018-06-28T14:48:41.183Z,19.80
2018-06-28T14:51:51.873Z,19.80
2018-06-28T14:55:02.975Z,19.80
2018-06-28T14:58:13.365Z,19.70
2018-06-28T15:01:24.057Z,19.70
2018-06-28T15:04:34.763Z,19.60
2018-06-28T15:07:45.435Z,19.60
2018-06-28T15:10:55.438Z,19.60
2018-06-28T15:14:05.867Z,19.70
2018-06-28T15:17:16.059Z,19.60
2018-06-28T15:20:26.319Z,19.40
2018-06-28T15:23:37.184Z,19.30
2018-06-28T15:26:47.436Z,19.30
2018-06-28T15:29:57.433Z,19.30
2018-06-28T15:33:07.585Z,19.20
2018-06-28T15:36:20.071Z,19.20
2018-06-28T15:39:31.816Z,19.10
2018-06-28T15:42:43.716Z,19.10
2018-06-28T15:45:55.488Z,19.20
2018-06-28T15:49:06.776Z,19.20
2018-06-28T15:52:18.026Z,19.30
2018-06-28T15:55:30.768Z,19.20
2018-06-28T15:58:43.423Z,19.30
2018-06-28T16:01:54.137Z,19.30
2018-06-28T16:05:05.414Z,19.30
2018-06-28T16:08:15.251Z,19.30
2018-06-28T16:11:25.497Z,19.20
2018-06-28T16:14:36.306Z,19.20
2018-06-28T16:17:47.017Z,19.20
2018-06-28T16:20:57.931Z,19.10
2018-06-28T16:24:09.115Z,19.10
2018-06-28T16:27:19.977Z,19.10
2018-06-28T16:30:30.502Z,19.10
2018-06-28T16:33:41.103Z,19.10
2018-06-28T16:36:52.116Z,19.10
2018-06-28T16:40:02.746Z,19.10
2018-06-28T16:43:13.545Z,19.20
2018-06-28T16:46:25.037Z,19.20
2018-06-28T16:49:36.057Z,19.20
2018-06-28T16:52:46.458Z,19.20
2018-06-28T16:55:57.388Z,19.20
2018-06-28T16:59:08.141Z,19.20
2018-06-28T17:02:18.868Z,19.10
2018-06-28T17:05:28.940Z,19.10
2018-06-28T17:08:39.191Z,19.10
2018-06-28T17:11:49.943Z,19.10
2018-06-28T17:15:01.286Z,19.00
2018-06-28T17:18:11.548Z,18.90
2018-06-28T17:21:21.504Z,19.00
2018-06-28T17:24:31.840Z,19.10
2018-06-28T17:27:42.759Z,19.10
2018-06-28T17:30:52.660Z,19.20
2018-06-28T17:34:04.572Z,19.30
2018-06-28T17:37:15.630Z,19.30
2018-06-28T17:40:26.668Z,19.30
2018-06-28T17:43:37.596Z,19.20
2018-06-28T17:49:59.172Z,19.20
2018-06-28T17:53:10.075Z,19.10
2018-06-28T17:56:20.687Z,19.10
2018-06-28T17:59:30.832Z,19.20
2018-06-28T18:02:42.471Z,19.20
2018-06-28T18:05:53.984Z,19.20
2018-06-28T18:09:07.510Z,19.10
2018-06-28T18:12:18.485Z,19.20
2018-06-28T18:15:28.965Z,19.10
2018-06-28T18:18:39.754Z,19.20
2018-06-28T18:21:50.248Z,19.20
2018-06-28T18:25:01.733Z,19.10
2018-06-28T18:28:12.529Z,19.10
2018-06-28T18:31:24.096Z,18.90
2018-06-28T18:34:34.378Z,18.90
2018-06-28T18:37:44.376Z,18.90
2018-06-28T18:40:54.780Z,18.80
2018-06-28T18:44:05.393Z,18.80
2018-06-28T18:47:16.967Z,18.80
2018-06-28T18:50:27.180Z,18.80
2018-06-28T18:53:37.722Z,18.80
2018-06-28T18:56:47.807Z,18.80
2018-06-28T18:59:59.246Z,18.60
2018-06-28T19:03:09.847Z,18.60
2018-06-28T19:06:20.792Z,18.60
2018-06-28T19:09:36.740Z,18.70
2018-06-28T19:12:46.929Z,18.70
2018-06-28T19:19:13.005Z,18.70
2018-06-28T19:22:28.527Z,18.60
2018-06-28T19:25:39.253Z,18.60
2018-06-28T19:28:49.766Z,18.60
2018-06-28T19:32:05.727Z,18.60
2018-06-28T19:35:16.389Z,18.50
2018-06-28T19:38:32.764Z,18.50
2018-06-28T19:41:48.899Z,18.50
2018-06-28T19:44:58.975Z,18.40
2018-06-28T19:48:09.740Z,18.30
2018-06-28T19:51:25.622Z,18.10
2018-06-28T19:54:35.878Z,18.20
2018-06-28T19:57:46.614Z,18.20
2018-06-28T20:01:02.325Z,18.10
2018-06-28T20:04:13.718Z,18.10
2018-06-28T20:07:24.420Z,18.20
2018-06-28T20:10:35.205Z,18.20
2018-06-28T20:13:51.520Z,18.20
2018-06-28T20:17:07.404Z,18.20
2018-06-28T20:20:19.631Z,18.20
2018-06-28T20:23:29.949Z,18.30
2018-06-28T20:26:45.480Z,18.30
2018-06-28T20:30:01.659Z,18.30
2018-06-28T20:33:17.333Z,18.20
2018-06-28T20:36:27.708Z,18.20
2018-06-28T20:39:42.943Z,18.20
2018-06-28T20:42:53.331Z,18.10
2018-06-28T20:46:03.827Z,18.00
2018-06-28T20:49:14.991Z,17.90
2018-06-28T20:52:25.289Z,17.90
2018-06-28T20:55:36.692Z,17.90
2018-06-28T20:58:46.990Z,17.80
2018-06-28T21:01:57.720Z,17.90
2018-06-28T21:05:08.338Z,17.90
2018-06-28T21:08:18.524Z,17.90
2018-06-28T21:11:29.174Z,17.90
2018-06-28T21:14:39.834Z,18.00
2018-06-28T21:17:51.056Z,18.00
2018-06-28T21:21:01.724Z,18.00
2018-06-28T21:24:12.333Z,18.00
2018-06-28T21:27:22.266Z,18.00
2018-06-28T21:30:33.276Z,17.90
2018-06-28T21:33:43.902Z,17.90
2018-06-28T21:36:53.912Z,17.90
2018-06-28T21:40:06.060Z,17.90
2018-06-28T21:43:16.240Z,17.90
2018-06-28T21:46:26.968Z,17.90
2018-06-28T21:49:37.223Z,17.90
2018-06-28T21:52:47.969Z,17.80
2018-06-28T21:55:58.833Z,17.80
2018-06-28T21:59:09.353Z,17.80
2018-06-28T22:02:20.633Z,17.80
2018-06-28T22:05:32.194Z,17.70
2018-06-28T22:08:42.099Z,17.70
2018-06-28T22:11:53.005Z,17.70
2018-06-28T22:15:03.056Z,17.60
2018-06-28T22:18:12.964Z,17.60
2018-06-28T22:21:23.754Z,17.60
2018-06-28T22:24:33.692Z,17.60
2018-06-28T22:27:44.073Z,17.60
2018-06-28T22:30:54.565Z,17.70
2018-06-28T22:34:05.174Z,17.60
2018-06-28T22:37:15.888Z,17.60
2018-06-28T22:40:26.816Z,17.70
2018-06-28T22:43:37.534Z,17.60
2018-06-28T22:46:48.441Z,17.60
2018-06-28T22:49:59.524Z,17.40
2018-06-28T22:53:10.013Z,17.50
2018-06-28T22:56:20.749Z,17.50
2018-06-28T22:59:30.938Z,17.50
2018-06-28T23:02:41.409Z,17.50
2018-06-28T23:05:51.828Z,17.50
2018-06-28T23:09:02.279Z,17.50
2018-06-28T23:12:13.034Z,17.50
2018-06-28T23:15:23.829Z,17.60
2018-06-28T23:18:34.165Z,17.50
2018-06-28T23:21:45.006Z,17.50
2018-06-28T23:24:54.958Z,17.50
2018-06-28T23:28:05.271Z,17.50
2018-06-28T23:31:15.573Z,17.50
2018-06-28T23:34:26.405Z,17.50
2018-06-28T23:37:36.413Z,17.50
2018-06-28T23:40:46.653Z,17.50
2018-06-28T23:43:57.373Z,17.40
2018-06-28T23:47:07.412Z,17.50
2018-06-28T23:50:18.735Z,17.40
2018-06-28T23:53:29.038Z,17.40
2018-06-28T23:56:39.665Z,17.40
2018-06-28T23:59:49.603Z,17.30
